^^
Grace C. Lehan Memorial Weather Station Historical Data
Daily Summary for May 21, 2021 Units:  English    Metric   Both
Daily Weekly Monthly Yearly
  High: Low: Average:
Temperature: 85.8 °F 71.8 °F 77.7 °F
Dew Point: 76.8 °F 70 °F 72.6 °F
Humidity: 95% 67% 85%
Wind Speed: 0.4mph 0mph 0mph
Wind Gust: 4mph - -
Wind- - ESE
Pressure: 29.93 in 29.86 in -
Precipitation: 0.00 in    
 
 
Tabular Data for May 21, 2021
Time Temperature Dew Point Pressure Wind Wind Speed Wind Gust Humidity Rainfall Rate (Hourly) solar
00:00 75.5 °F 72.4 °F 29.86 in Calm     90% 0.00 in 0 W/m2
00:09 75.5 °F 72.4 °F 29.86 in Calm     90% 0.00 in 0 W/m2
00:14 75.5 °F 72.4 °F 29.87 in Calm     90% 0.00 in 0 W/m2
00:19 75.4 °F 72.3 °F 29.87 in Calm     90% 0.00 in 0 W/m2
00:24 75.4 °F 72.3 °F 29.87 in Calm     90% 0.00 in 0 W/m2
00:29 75.3 °F 72.2 °F 29.87 in Calm     90% 0.00 in 0 W/m2
00:34 75.3 °F 72.2 °F 29.87 in Calm     90% 0.00 in 0 W/m2
00:39 75.3 °F 72.2 °F 29.87 in Calm     90% 0.00 in 0 W/m2
00:44 75.2 °F 72.1 °F 29.87 in Calm     90% 0.00 in 0 W/m2
00:49 75.2 °F 72.1 °F 29.87 in Calm     90% 0.00 in 0 W/m2
00:54 75.2 °F 72.1 °F 29.87 in Calm     90% 0.00 in 0 W/m2
00:59 75.2 °F 72.1 °F 29.87 in Calm     90% 0.00 in 0 W/m2
01:04 75.2 °F 72.2 °F 29.87 in Calm     90.6% 0.00 in 0 W/m2
01:09 75.1 °F 72.3 °F 29.87 in Calm     91% 0.00 in 0 W/m2
01:14 75.1 °F 72.3 °F 29.87 in Calm     91% 0.00 in 0 W/m2
01:19 75.1 °F 72.3 °F 29.87 in Calm     91% 0.00 in 0 W/m2
01:24 75.1 °F 72.3 °F 29.87 in Calm     91% 0.00 in 0 W/m2
01:29 75.1 °F 72.3 °F 29.87 in Calm     91% 0.00 in 0 W/m2
01:34 75.1 °F 72.3 °F 29.87 in Calm     91% 0.00 in 0 W/m2
01:39 75 °F 72.2 °F 29.87 in Calm     91% 0.00 in 0 W/m2
01:44 75 °F 72.3 °F 29.87 in Calm     91.3% 0.00 in 0 W/m2
01:49 75 °F 72.5 °F 29.87 in Calm     92% 0.00 in 0 W/m2
01:54 75 °F 72.5 °F 29.87 in Calm     92% 0.00 in 0 W/m2
01:59 74.9 °F 72.4 °F 29.86 in Calm     92% 0.00 in 0 W/m2
02:04 74.9 °F 72.4 °F 29.86 in Calm     92% 0.00 in 0 W/m2
02:09 74.9 °F 72.4 °F 29.86 in Calm     92% 0.00 in 0 W/m2
02:14 74.9 °F 72.4 °F 29.86 in Calm     92% 0.00 in 0 W/m2
02:19 74.8 °F 72.3 °F 29.86 in Calm     92% 0.00 in 0 W/m2
02:24 74.8 °F 72.3 °F 29.86 in Calm     92% 0.00 in 0 W/m2
02:29 74.8 °F 72.3 °F 29.86 in Calm     92% 0.00 in 0 W/m2
02:34 74.8 °F 72.3 °F 29.86 in Calm     92% 0.00 in 0 W/m2
02:39 74.7 °F 72.2 °F 29.86 in Calm     92% 0.00 in 0 W/m2
02:44 74.6 °F 72.2 °F 29.86 in Calm     92% 0.00 in 0 W/m2
02:49 74.6 °F 72.1 °F 29.86 in Calm     92% 0.00 in 0 W/m2
02:54 74.6 °F 72.1 °F 29.86 in Calm     92% 0.00 in 0 W/m2
02:59 74.5 °F 72 °F 29.86 in Calm     92% 0.00 in 0 W/m2
03:04 74.5 °F 72 °F 29.86 in Calm     92% 0.00 in 0 W/m2
03:09 74.4 °F 71.9 °F 29.86 in Calm     92% 0.00 in 0 W/m2
03:14 74.3 °F 71.8 °F 29.86 in Calm     92% 0.00 in 0 W/m2
03:19 74.2 °F 71.7 °F 29.86 in Calm     92% 0.00 in 0 W/m2
03:24 74.1 °F 71.7 °F 29.86 in Calm     92% 0.00 in 0 W/m2
03:29 74 °F 71.6 °F 29.86 in Calm     92% 0.00 in 0 W/m2
03:34 73.9 °F 71.5 °F 29.86 in Calm     92% 0.00 in 0 W/m2
03:39 73.8 °F 71.4 °F 29.86 in Calm     92% 0.00 in 0 W/m2
03:44 73.7 °F 71.3 °F 29.86 in Calm     92% 0.00 in 0 W/m2
03:49 73.7 °F 71.2 °F 29.87 in Calm     92% 0.00 in 0 W/m2
03:54 73.5 °F 71.1 °F 29.87 in Calm     92% 0.00 in 0 W/m2
03:59 73.4 °F 70.9 °F 29.87 in Calm     92% 0.00 in 0 W/m2
04:04 73.3 °F 70.8 °F 29.87 in Calm     92% 0.00 in 0 W/m2
04:09 73.2 °F 70.7 °F 29.87 in Calm     92% 0.00 in 0 W/m2
04:14 73.1 °F 70.7 °F 29.88 in Calm     92.2% 0.00 in 0 W/m2
04:19 73 °F 70.9 °F 29.88 in Calm     93% 0.00 in 0 W/m2
04:24 73 °F 70.8 °F 29.88 in Calm     93% 0.00 in 0 W/m2
04:29 72.9 °F 70.8 °F 29.88 in Calm     93% 0.00 in 0 W/m2
04:34 72.9 °F 70.8 °F 29.88 in Calm     93% 0.00 in 0 W/m2
04:39 72.9 °F 70.8 °F 29.88 in Calm     93% 0.00 in 0 W/m2
04:44 72.9 °F 70.8 °F 29.88 in Calm     93% 0.00 in 0 W/m2
04:49 72.8 °F 70.7 °F 29.88 in Calm     93% 0.00 in 0 W/m2
04:54 72.8 °F 70.7 °F 29.88 in Calm     93% 0.00 in 0 W/m2
04:59 72.7 °F 70.6 °F 29.89 in Calm     93% 0.00 in 0 W/m2
05:04 72.7 °F 70.6 °F 29.89 in Calm     93% 0.00 in 0 W/m2
05:09 72.7 °F 70.6 °F 29.89 in Calm     93.1% 0.00 in 0 W/m2
05:14 72.6 °F 70.8 °F 29.89 in Calm     94% 0.00 in 0 W/m2
05:19 72.6 °F 70.8 °F 29.89 in Calm     94% 0.00 in 0 W/m2
05:24 72.5 °F 70.7 °F 29.89 in Calm     94% 0.00 in 0 W/m2
05:29 72.5 °F 70.7 °F 29.89 in Calm     94% 0.00 in 0 W/m2
05:34 72.4 °F 70.6 °F 29.89 in Calm     94% 0.00 in 0 W/m2
05:39 72.3 °F 70.5 °F 29.89 in Calm     94% 0.00 in 0 W/m2
05:44 72.2 °F 70.4 °F 29.89 in Calm     94% 0.00 in 0 W/m2
05:49 72.1 °F 70.3 °F 29.89 in Calm     94% 0.00 in 0 W/m2
05:54 72 °F 70.2 °F 29.89 in Calm     93.8% 0.00 in 0 W/m2
05:59 71.9 °F 70.1 °F 29.89 in Calm     94% 0.00 in 0 W/m2
06:04 71.9 °F 70 °F 29.89 in Calm     94% 0.00 in 0 W/m2
06:09 71.8 °F 70 °F 29.90 in Calm     94% 0.00 in 0 W/m2
06:14 71.8 °F 70 °F 29.90 in Calm     94% 0.00 in 0 W/m2
06:19 71.9 °F 70.1 °F 29.90 in Calm     94% 0.00 in 0 W/m2
06:24 71.9 °F 70.1 °F 29.90 in Calm     94% 0.00 in 0 W/m2
06:29 71.9 °F 70.1 °F 29.90 in Calm     94% 0.00 in 0 W/m2
06:34 72 °F 70.1 °F 29.90 in Calm     94% 0.00 in 5 W/m2
06:39 72 °F 70.2 °F 29.90 in Calm     94% 0.00 in 7 W/m2
06:44 72.1 °F 70.3 °F 29.90 in Calm     94% 0.00 in 12 W/m2
06:49 72.2 °F 70.7 °F 29.90 in Calm     95% 0.00 in 16 W/m2
06:54 72.2 °F 70.7 °F 29.90 in Calm     95% 0.00 in 25 W/m2
06:59 72.3 °F 70.8 °F 29.90 in Calm     95% 0.00 in 26 W/m2
07:04 72.4 °F 70.9 °F 29.90 in Calm     95% 0.00 in 28 W/m2
07:09 72.4 °F 70.9 °F 29.90 in Calm     95% 0.00 in 28 W/m2
07:14 72.5 °F 70.9 °F 29.90 in Calm     95% 0.00 in 30 W/m2
07:19 72.6 °F 71.1 °F 29.89 in Calm     95% 0.00 in 33 W/m2
07:24 72.6 °F 71.1 °F 29.89 in Calm     95% 0.00 in 35 W/m2
07:29 72.7 °F 71.2 °F 29.90 in Calm     95% 0.00 in 39 W/m2
07:34 72.7 °F 71.2 °F 29.90 in Calm     95% 0.00 in 40 W/m2
07:39 72.8 °F 71.3 °F 29.90 in Calm     95% 0.00 in 58 W/m2
07:44 72.9 °F 71.4 °F 29.90 in Calm     95% 0.00 in 58 W/m2
07:49 73 °F 71.5 °F 29.90 in Calm     95% 0.00 in 51 W/m2
07:54 73 °F 71.5 °F 29.91 in Calm     95% 0.00 in 53 W/m2
07:59 73.1 °F 71.6 °F 29.91 in Calm     95% 0.00 in 62 W/m2
08:00 73.2 °F 71.7 °F 29.91 in Calm     95% 0.00 in 62 W/m2
08:09 73.3 °F 71.8 °F 29.91 in Calm     95% 0.00 in 58 W/m2
08:14 73.4 °F 71.9 °F 29.91 in Calm     95% 0.00 in 56 W/m2
08:19 73.4 °F 71.9 °F 29.91 in Calm     95% 0.00 in 56 W/m2
08:24 73.5 °F 71.9 °F 29.91 in Calm     95% 0.00 in 58 W/m2
08:29 73.5 °F 72 °F 29.91 in Calm     95% 0.00 in 67 W/m2
08:34 73.7 °F 72.1 °F 29.91 in Calm     95% 0.00 in 67 W/m2
08:39 73.7 °F 72.2 °F 29.92 in Calm     95% 0.00 in 60 W/m2
08:44 73.8 °F 72.3 °F 29.92 in Calm     95% 0.00 in 63 W/m2
08:49 74 °F 72.2 °F 29.92 in Calm     94.2% 0.00 in 69 W/m2
08:54 74.1 °F 72.2 °F 29.92 in Calm     94% 0.00 in 91 W/m2
08:59 74.2 °F 72.3 °F 29.92 in Calm     94% 0.00 in 109 W/m2
09:04 74.1 °F 72.2 °F 29.92 in Calm     93.7% 0.00 in 102 W/m2
09:09 74 °F 71.9 °F 29.92 in Calm     93% 0.00 in 111 W/m2
09:14 74.1 °F 72 °F 29.92 in Calm     93% 0.00 in 114 W/m2
09:19 74.2 °F 72.1 °F 29.92 in Calm     93% 0.00 in 121 W/m2
09:24 74.3 °F 72.2 °F 29.92 in Calm     93% 0.00 in 114 W/m2
09:29 74.4 °F 72.3 °F 29.93 in Calm     93% 0.00 in 95 W/m2
09:34 74.6 °F 72.4 °F 29.93 in Calm     93% 0.00 in 139 W/m2
09:39 74.8 °F 72.6 °F 29.93 in Calm     93% 0.00 in 132 W/m2
09:44 74.9 °F 72.6 °F 29.93 in Calm     92.6% 0.00 in 146 W/m2
09:49 75 °F 72.5 °F 29.92 in Calm     92% 0.00 in 163 W/m2
09:54 75.1 °F 72.6 °F 29.93 in Calm     92% 0.00 in 165 W/m2
09:59 75.2 °F 72.4 °F 29.93 in Calm     91.1% 0.00 in 165 W/m2
10:04 75.3 °F 72.5 °F 29.93 in Calm     91% 0.00 in 172 W/m2
10:09 75.5 °F 72.7 °F 29.93 in Calm     91% 0.00 in 186 W/m2
10:14 75.7 °F 72.9 °F 29.92 in Calm     91% 0.00 in 174 W/m2
10:19 75.9 °F 72.9 °F 29.93 in Calm     90.4% 0.00 in 193 W/m2
10:24 76.2 °F 73.2 °F 29.92 in Calm     90.4% 0.00 in 221 W/m2
10:29 76.5 °F 73.6 °F 29.93 in Calm     90.6% 0.00 in 199 W/m2
10:34 76.6 °F 73.2 °F 29.92 in Calm     89.3% 0.00 in 156 W/m2
10:39 76.7 °F 73 °F 29.92 in Calm     88.3% 0.00 in 178 W/m2
10:44 76.7 °F 72.9 °F 29.92 in Calm     88% 0.00 in 434 W/m2
10:49 77 °F 73.4 °F 29.93 in Calm     88.6% 0.00 in 417 W/m2
10:54 77.6 °F 74.1 °F 29.93 in Calm     88.9% 0.00 in 318 W/m2
10:59 78.1 °F 74 °F 29.93 in East 0.1 mph 3 mph 87.3% 0.00 in 969 W/m2
11:04 78.8 °F 74.5 °F 29.93 in Calm   3 mph 86.8% 0.00 in 1002 W/m2
11:09 79.3 °F 74.2 °F 29.93 in Calm     84.3% 0.00 in 466 W/m2
11:14 79.8 °F 74.7 °F 29.93 in Calm     84.4% 0.00 in 466 W/m2
11:19 80.4 °F 74.8 °F 29.92 in Calm     83.2% 0.00 in 895 W/m2
11:24 81.1 °F 75.1 °F 29.92 in East 0.2 mph 3 mph 82% 0.00 in 896 W/m2
11:29 81.9 °F 75.5 °F 29.92 in East 0.4 mph 4 mph 81% 0.00 in 900 W/m2
11:34 82.7 °F 75.7 °F 29.92 in East 0.2 mph 4 mph 79.5% 0.00 in 877 W/m2
11:39 83.5 °F 76.1 °F 29.92 in East 0.1 mph 2 mph 78.3% 0.00 in 895 W/m2
11:44 84.1 °F 75.8 °F 29.92 in Calm   2 mph 76.1% 0.00 in 895 W/m2
11:49 84.7 °F 76.8 °F 29.92 in Calm   2 mph 77.5% 0.00 in 870 W/m2
11:54 85.1 °F 75.9 °F 29.92 in Calm   2 mph 73.9% 0.00 in 881 W/m2
11:59 85.2 °F 75.3 °F 29.92 in Calm   2 mph 72.4% 0.00 in 896 W/m2
12:09 85.5 °F 75.8 °F 29.91 in Calm     72.9% 0.00 in 608 W/m2
12:14 85.3 °F 74.9 °F 29.91 in Calm   2 mph 71.2% 0.00 in 559 W/m2
12:19 85.3 °F 75.1 °F 29.91 in East 0.2 mph 3 mph 71.5% 0.00 in 803 W/m2
12:24 85.2 °F 74.3 °F 29.91 in Calm   3 mph 70.1% 0.00 in 803 W/m2
12:29 84.8 °F 74 °F 29.91 in East 0.4 mph 3 mph 70.3% 0.00 in 329 W/m2
12:34 84.2 °F 74.1 °F 29.91 in Calm   3 mph 71.7% 0.00 in 241 W/m2
12:39 84 °F 73.8 °F 29.91 in Calm     71.4% 0.00 in 301 W/m2
12:44 83.9 °F 74 °F 29.91 in Calm     72.1% 0.00 in 1025 W/m2
12:49 84 °F 73.9 °F 29.91 in Calm     71.6% 0.00 in 1053 W/m2
12:54 84.2 °F 73.9 °F 29.90 in Calm     71.3% 0.00 in 181 W/m2
12:59 84.1 °F 73.7 °F 29.90 in Calm   1 mph 71% 0.00 in 181 W/m2
13:04 84.1 °F 74 °F 29.91 in East 0.4 mph 3 mph 71.7% 0.00 in 1020 W/m2
13:09 84.3 °F 73.8 °F 29.91 in Calm   3 mph 70.8% 0.00 in 146 W/m2
13:14 84.4 °F 73.9 °F 29.91 in Calm   3 mph 70.8% 0.00 in 174 W/m2
13:19 84.5 °F 74.2 °F 29.91 in Calm   3 mph 71.2% 0.00 in 214 W/m2
13:24 84.6 °F 74.2 °F 29.91 in Calm   3 mph 70.9% 0.00 in 1093 W/m2
13:29 84.9 °F 73.9 °F 29.91 in East 0.1 mph 3 mph 69.7% 0.00 in 1063 W/m2
13:34 85.3 °F 73.6 °F 29.91 in Calm   3 mph 68% 0.00 in 981 W/m2
13:39 85.4 °F 73.3 °F 29.91 in Calm     67.2% 0.00 in 227 W/m2
13:40 85.4 °F 73.5 °F 29.90 in Calm     67.6% 0.00 in 227 W/m2
14:00 85.8 °F 73.6 °F 29.91 in Calm     67% 0.00 in 216 W/m2
14:30 85.5 °F 73.3 °F 29.90 in Calm   1 mph 67% 0.00 in 224 W/m2
15:00 84.8 °F 72.6 °F 29.90 in Calm   2 mph 67% 0.00 in 193 W/m2
15:30 84.7 °F 73.4 °F 29.89 in Calm   4 mph 69% 0.00 in 246 W/m2
16:04 84.7 °F 73.8 °F 29.88 in ESE 0.1 mph 1 mph 70% 0.00 in 387 W/m2
16:09 84.7 °F 74.1 °F 29.88 in ESE 0.1 mph 1 mph 70.6% 0.00 in 367 W/m2
16:14 84.6 °F 74.1 °F 29.88 in Calm   1 mph 70.8% 0.00 in 163 W/m2
16:19 84.5 °F 74.1 °F 29.88 in ESE 0.1 mph 3 mph 71% 0.00 in 158 W/m2
16:24 84.4 °F 74.2 °F 29.88 in ESE 0.1 mph 3 mph 71.4% 0.00 in 146 W/m2
16:29 84.3 °F 74 °F 29.88 in ESE 0.1 mph 3 mph 71.2% 0.00 in 149 W/m2
16:34 84.2 °F 74.1 °F 29.89 in Calm   3 mph 71.7% 0.00 in 134 W/m2
16:39 84 °F 73.9 °F 29.89 in Calm   1 mph 71.6% 0.00 in 111 W/m2
16:44 83.8 °F 73.4 °F 29.88 in SE 0.1 mph 1 mph 71% 0.00 in 118 W/m2
16:49 83.7 °F 73.3 °F 29.88 in ESE 0.2 mph 3 mph 71% 0.00 in 118 W/m2
16:54 83.6 °F 73.2 °F 29.88 in Calm   3 mph 71% 0.00 in 109 W/m2
16:59 83.6 °F 73.2 °F 29.88 in Calm   3 mph 71% 0.00 in 105 W/m2
17:04 83.5 °F 72.4 °F 29.88 in Calm   3 mph 69.3% 0.00 in 100 W/m2
17:09 83.6 °F 72.7 °F 29.88 in Calm   1 mph 69.8% 0.00 in 88 W/m2
17:14 83.6 °F 72.5 °F 29.88 in ESE 0.2 mph 4 mph 69.3% 0.00 in 83 W/m2
17:19 83.7 °F 72.8 °F 29.88 in SE 0.3 mph 4 mph 69.9% 0.00 in 84 W/m2
17:24 83.7 °F 72.9 °F 29.88 in SE 0.2 mph 4 mph 70% 0.00 in 77 W/m2
17:29 83.7 °F 72.9 °F 29.88 in SE 0.2 mph 4 mph 70.2% 0.00 in 83 W/m2
17:34 83.6 °F 73.3 °F 29.88 in Calm   4 mph 71.3% 0.00 in 79 W/m2
17:39 83.5 °F 73.3 °F 29.88 in Calm   1 mph 71.5% 0.00 in 77 W/m2
17:44 83.4 °F 73.4 °F 29.88 in Calm   1 mph 71.9% 0.00 in 69 W/m2
17:49 83.4 °F 73.4 °F 29.88 in SE 0.3 mph 3 mph 72% 0.00 in 58 W/m2
17:54 83.4 °F 73.7 °F 29.88 in Calm   3 mph 72.7% 0.00 in 44 W/m2
17:59 83.3 °F 73.2 °F 29.88 in Calm   3 mph 71.7% 0.00 in 26 W/m2
18:04 83.1 °F 73.1 °F 29.87 in Calm   3 mph 72% 0.00 in 32 W/m2
18:09 82.9 °F 73 °F 29.87 in Calm   1 mph 72.2% 0.00 in 30 W/m2
18:14 82.6 °F 72.9 °F 29.88 in Calm   1 mph 72.5% 0.00 in 35 W/m2
18:19 82.4 °F 72.7 °F 29.88 in Calm   1 mph 72.6% 0.00 in 33 W/m2
18:24 82.3 °F 73 °F 29.88 in Calm   1 mph 73.4% 0.00 in 33 W/m2
18:29 82.2 °F 73.1 °F 29.87 in Calm   1 mph 74% 0.00 in 44 W/m2
18:34 82.1 °F 73 °F 29.88 in Calm   1 mph 74% 0.00 in 47 W/m2
18:39 82 °F 73.1 °F 29.88 in Calm   1 mph 74.5% 0.00 in 47 W/m2
18:44 81.9 °F 73.2 °F 29.88 in Calm   1 mph 75% 0.00 in 44 W/m2
18:49 81.8 °F 73.3 °F 29.88 in Calm   1 mph 75.6% 0.00 in 39 W/m2
18:54 81.6 °F 73.3 °F 29.88 in Calm   1 mph 76% 0.00 in 32 W/m2
18:59 81.5 °F 73.3 °F 29.88 in Calm   1 mph 76% 0.00 in 23 W/m2
19:04 81.5 °F 73.4 °F 29.88 in Calm   1 mph 76.5% 0.00 in 18 W/m2
19:09 81.4 °F 73.5 °F 29.88 in Calm   1 mph 77% 0.00 in 12 W/m2
19:14 81.2 °F 73.5 °F 29.88 in Calm   1 mph 77.5% 0.00 in 9 W/m2
19:19 81.1 °F 73.6 °F 29.88 in Calm   1 mph 78% 0.00 in 5 W/m2
19:24 80.9 °F 73.4 °F 29.88 in Calm   1 mph 78% 0.00 in 5 W/m2
19:29 80.8 °F 73.3 °F 29.88 in Calm   1 mph 78% 0.00 in 0 W/m2
19:34 80.7 °F 73.2 °F 29.88 in Calm   1 mph 78% 0.00 in 0 W/m2
19:39 80.6 °F 73.4 °F 29.88 in Calm     78.7% 0.00 in 0 W/m2
19:44 80.5 °F 73.4 °F 29.88 in Calm     79% 0.00 in 0 W/m2
19:49 80.4 °F 73.7 °F 29.89 in Calm     80% 0.00 in 0 W/m2
19:54 80.3 °F 73.6 °F 29.89 in Calm     80% 0.00 in 0 W/m2
19:59 80.2 °F 73.7 °F 29.89 in Calm     80.6% 0.00 in 0 W/m2
20:04 80.1 °F 73.8 °F 29.88 in Calm     81% 0.00 in 0 W/m2
20:09 80.1 °F 73.7 °F 29.89 in Calm     81% 0.00 in 0 W/m2
20:14 80 °F 73.6 °F 29.89 in Calm     81% 0.00 in 0 W/m2
20:19 79.9 °F 73.6 °F 29.89 in Calm     81.1% 0.00 in 0 W/m2
20:24 79.8 °F 73.8 °F 29.89 in SSE 0.1 mph 2 mph 82% 0.00 in 0 W/m2
20:29 79.7 °F 73.7 °F 29.89 in Calm   2 mph 82% 0.00 in 0 W/m2
20:34 79.6 °F 73.6 °F 29.89 in Calm   2 mph 82.1% 0.00 in 0 W/m2
20:39 79.5 °F 73.8 °F 29.89 in Calm     83% 0.00 in 0 W/m2
20:44 79.3 °F 73.7 °F 29.89 in Calm     83% 0.00 in 0 W/m2
20:49 79.2 °F 73.8 °F 29.89 in Calm   2 mph 83.7% 0.00 in 0 W/m2
20:54 79.1 °F 73.8 °F 29.89 in Calm   2 mph 84% 0.00 in 0 W/m2
20:59 78.9 °F 73.7 °F 29.89 in Calm   2 mph 84% 0.00 in 0 W/m2
21:04 78.8 °F 73.6 °F 29.89 in Calm   2 mph 84.1% 0.00 in 0 W/m2
21:08 78.7 °F 73.8 °F 29.89 in Calm     85% 0.00 in 0 W/m2
Hartford County Weather
Compliments of Weather Underground - 2 mb